createdAt,value
2022-08-17T00:02:25.566Z,18.90
2022-08-17T00:05:29.591Z,19.00
2022-08-17T00:08:40.512Z,18.90
2022-08-17T00:12:03.970Z,18.90
2022-08-17T00:15:08.799Z,18.80
2022-08-17T00:18:56.758Z,18.70
2022-08-17T00:22:31.705Z,18.50
2022-08-17T00:25:00.752Z,18.20
2022-08-17T00:28:02.664Z,18.10
2022-08-17T00:31:06.950Z,18.20
2022-08-17T00:34:10.229Z,18.30
2022-08-17T00:37:11.436Z,18.40
2022-08-17T00:40:15.278Z,18.40
2022-08-17T00:43:18.593Z,18.50
2022-08-17T00:46:26.494Z,18.40
2022-08-17T00:49:27.192Z,18.40
2022-08-17T00:52:41.499Z,18.30
2022-08-17T00:55:42.682Z,18.20
2022-08-17T00:58:44.449Z,18.20
2022-08-17T01:01:48.694Z,18.10
2022-08-17T01:04:54.106Z,18.10
2022-08-17T01:07:55.890Z,18.10
2022-08-17T01:11:03.369Z,18.20
2022-08-17T01:14:04.306Z,18.30
2022-08-17T01:17:06.884Z,18.30
2022-08-17T01:20:09.249Z,18.30
2022-08-17T01:23:10.639Z,18.30
2022-08-17T01:26:22.012Z,18.10
2022-08-17T01:29:24.699Z,18.10
2022-08-17T01:32:28.829Z,18.20
2022-08-17T01:35:29.922Z,18.30
2022-08-17T01:38:32.032Z,18.20
2022-08-17T01:41:34.792Z,18.10
2022-08-17T01:44:36.187Z,18.10
2022-08-17T01:47:41.807Z,17.90
2022-08-17T01:50:46.811Z,17.90
2022-08-17T01:53:57.681Z,17.80
2022-08-17T01:56:58.662Z,17.90
2022-08-17T02:00:00.001Z,17.80
2022-08-17T02:03:01.093Z,17.80
2022-08-17T02:06:05.094Z,17.80
2022-08-17T02:09:07.766Z,17.70
2022-08-17T02:12:37.680Z,17.50
2022-08-17T02:15:39.112Z,17.40
2022-08-17T02:18:40.521Z,17.30
2022-08-17T02:21:45.049Z,17.30
2022-08-17T02:24:59.566Z,17.20
2022-08-17T02:28:04.657Z,17.30
2022-08-17T02:31:12.675Z,17.30
2022-08-17T02:34:14.354Z,17.30
2022-08-17T02:37:17.981Z,17.20
2022-08-17T02:40:35.950Z,17.10
2022-08-17T02:43:37.562Z,17.10
2022-08-17T02:46:38.940Z,17.00
2022-08-17T02:49:40.378Z,16.90
2022-08-17T02:52:44.211Z,16.80
2022-08-17T02:55:48.725Z,16.90
2022-08-17T02:58:49.922Z,17.00
2022-08-17T03:01:51.305Z,17.00
2022-08-17T03:04:52.517Z,17.10
2022-08-17T03:07:53.940Z,17.00
2022-08-17T03:10:55.239Z,17.00
2022-08-17T03:13:56.874Z,16.90
2022-08-17T03:16:57.865Z,16.90
2022-08-17T03:19:59.176Z,16.90
2022-08-17T03:23:01.995Z,16.90
2022-08-17T03:26:04.213Z,16.80
2022-08-17T03:29:19.007Z,16.90
2022-08-17T03:32:20.864Z,16.90
2022-08-17T03:35:26.556Z,17.00
2022-08-17T03:38:27.656Z,17.10
2022-08-17T03:41:28.508Z,17.00
2022-08-17T03:44:29.811Z,16.90
2022-08-17T03:47:49.502Z,16.80
2022-08-17T03:51:14.521Z,16.80
2022-08-17T03:54:34.649Z,16.70
2022-08-17T03:57:36.688Z,16.60
2022-08-17T04:00:39.841Z,16.50
2022-08-17T04:03:41.198Z,16.40
2022-08-17T04:06:43.560Z,16.30
2022-08-17T04:09:45.110Z,16.30
2022-08-17T04:12:54.925Z,16.30
2022-08-17T04:15:56.355Z,16.20
2022-08-17T04:18:57.824Z,16.10
2022-08-17T04:21:59.074Z,16.20
2022-08-17T04:25:03.577Z,16.70
2022-08-17T04:28:07.657Z,16.70
2022-08-17T04:31:18.094Z,16.70
2022-08-17T04:34:19.905Z,16.60
2022-08-17T04:37:20.814Z,16.50
2022-08-17T04:40:42.145Z,16.50
2022-08-17T04:43:45.657Z,16.60
2022-08-17T04:46:46.669Z,17.00
2022-08-17T04:49:47.416Z,17.30
2022-08-17T04:52:50.946Z,17.50
2022-08-17T04:55:55.516Z,17.60
2022-08-17T04:59:04.143Z,17.50
2022-08-17T05:02:05.123Z,17.50
2022-08-17T05:05:07.043Z,17.60
2022-08-17T05:08:08.322Z,17.70
2022-08-17T05:11:09.738Z,17.70
2022-08-17T05:14:10.921Z,17.90
2022-08-17T05:17:11.654Z,18.00
2022-08-17T05:20:12.408Z,18.10
2022-08-17T05:23:17.842Z,18.10
2022-08-17T05:26:26.668Z,18.20
2022-08-17T05:29:34.480Z,18.30
2022-08-17T05:32:37.951Z,18.50
2022-08-17T05:35:47.470Z,18.60
2022-08-17T05:38:48.896Z,18.60
2022-08-17T05:41:49.644Z,18.70
2022-08-17T05:44:50.667Z,18.60
2022-08-17T05:47:51.831Z,18.60
2022-08-17T05:51:13.786Z,18.60
2022-08-17T05:54:36.036Z,18.90
2022-08-17T05:58:19.475Z,19.10
2022-08-17T06:01:43.957Z,19.30
2022-08-17T06:04:59.817Z,19.50
2022-08-17T06:08:27.128Z,19.70
2022-08-17T06:11:35.277Z,19.80
2022-08-17T06:15:02.231Z,19.90
2022-08-17T06:18:08.966Z,19.80
2022-08-17T06:21:17.220Z,19.80
2022-08-17T06:24:47.817Z,19.90
2022-08-17T06:28:18.752Z,20.10
2022-08-17T06:31:29.347Z,20.30
2022-08-17T06:34:32.623Z,20.40
2022-08-17T06:37:44.575Z,20.50
2022-08-17T06:41:32.517Z,20.80
2022-08-17T06:44:51.296Z,21.00
2022-08-17T06:48:09.638Z,21.20
2022-08-17T06:51:33.580Z,21.10
2022-08-17T06:54:51.157Z,21.00
2022-08-17T06:57:59.179Z,21.20
2022-08-17T07:01:12.485Z,21.40
2022-08-17T07:04:21.631Z,21.50
2022-08-17T07:07:41.451Z,21.40
2022-08-17T07:10:53.524Z,21.40
2022-08-17T07:14:30.954Z,21.40
2022-08-17T07:17:46.923Z,21.60
2022-08-17T07:20:59.972Z,22.00
2022-08-17T07:24:30.679Z,22.30
2022-08-17T07:27:51.511Z,22.60
2022-08-17T07:30:54.535Z,23.00
2022-08-17T07:34:14.714Z,23.10
2022-08-17T07:37:19.796Z,23.40
2022-08-17T07:40:27.338Z,23.40
2022-08-17T07:43:31.142Z,23.20
2022-08-17T07:47:06.867Z,23.10
2022-08-17T07:50:40.166Z,23.10
2022-08-17T07:53:41.834Z,23.60
2022-08-17T07:56:50.714Z,23.90
2022-08-17T08:00:03.903Z,24.10
2022-08-17T08:03:28.388Z,24.20
2022-08-17T08:06:30.182Z,24.70
2022-08-17T08:09:42.290Z,24.90
2022-08-17T08:12:49.063Z,25.40
2022-08-17T08:16:17.867Z,25.50
2022-08-17T08:19:21.085Z,25.70
2022-08-17T08:22:37.834Z,26.20
2022-08-17T08:25:57.606Z,26.50
2022-08-17T08:29:39.771Z,27.00
2022-08-17T08:33:07.815Z,26.90
2022-08-17T08:37:12.682Z,27.00
2022-08-17T08:40:53.709Z,26.90
2022-08-17T08:44:03.928Z,27.20
2022-08-17T08:47:41.729Z,26.80
2022-08-17T08:51:01.962Z,26.40
2022-08-17T08:54:35.336Z,26.70
2022-08-17T08:58:02.775Z,27.00
2022-08-17T09:01:20.993Z,27.00
2022-08-17T09:05:14.215Z,27.40
2022-08-17T09:08:45.495Z,27.40
2022-08-17T09:12:33.630Z,27.70
2022-08-17T09:16:09.985Z,27.50
2022-08-17T09:19:35.038Z,27.40
2022-08-17T09:22:48.695Z,27.60
2022-08-17T09:26:00.954Z,27.90
2022-08-17T09:29:10.943Z,28.00
2022-08-17T09:32:39.760Z,28.00
2022-08-17T09:35:59.244Z,28.40
2022-08-17T09:39:36.846Z,28.20
2022-08-17T09:43:00.878Z,28.70
2022-08-17T09:46:12.120Z,28.80
2022-08-17T09:49:42.626Z,29.40
2022-08-17T09:52:44.321Z,29.50
2022-08-17T09:56:06.509Z,29.70
2022-08-17T10:00:25.325Z,30.00
2022-08-17T10:04:09.432Z,30.50
2022-08-17T10:07:32.209Z,30.60
2022-08-17T10:11:19.122Z,30.70
2022-08-17T10:14:55.128Z,31.90
2022-08-17T10:18:25.572Z,31.90
2022-08-17T10:22:00.841Z,31.40
2022-08-17T10:25:37.558Z,31.70
2022-08-17T10:29:29.207Z,32.20
2022-08-17T10:32:40.958Z,32.30
2022-08-17T10:36:08.787Z,32.90
2022-08-17T10:39:52.779Z,32.70
2022-08-17T10:43:11.952Z,32.50
2022-08-17T10:46:45.616Z,32.60
2022-08-17T10:49:54.439Z,32.70
2022-08-17T10:52:56.146Z,33.30
2022-08-17T10:56:12.460Z,33.80
2022-08-17T10:59:35.783Z,33.60
2022-08-17T11:02:52.780Z,34.20
2022-08-17T11:06:42.628Z,33.40
2022-08-17T11:10:21.415Z,33.70
2022-08-17T11:13:37.912Z,34.70
2022-08-17T11:17:29.387Z,34.90
2022-08-17T11:21:12.384Z,35.00
2022-08-17T11:24:40.053Z,33.60
2022-08-17T11:27:53.911Z,34.20
2022-08-17T11:31:37.795Z,34.70
2022-08-17T11:34:44.704Z,35.30
2022-08-17T11:38:20.932Z,36.00
2022-08-17T11:41:55.318Z,36.50
2022-08-17T11:45:32.491Z,36.50
2022-08-17T11:49:27.033Z,37.40
2022-08-17T11:52:50.198Z,36.70
2022-08-17T11:55:57.149Z,36.90
2022-08-17T11:59:00.613Z,34.70
2022-08-17T12:02:05.013Z,33.70
2022-08-17T12:05:12.552Z,33.20
2022-08-17T12:08:22.513Z,34.10
2022-08-17T12:12:01.687Z,34.70
2022-08-17T12:15:28.935Z,36.40
2022-08-17T12:18:35.825Z,35.90
2022-08-17T12:22:01.922Z,35.30
2022-08-17T12:25:43.583Z,35.20
2022-08-17T12:28:51.926Z,34.20
2022-08-17T12:31:54.651Z,33.50
2022-08-17T12:34:56.062Z,34.30
2022-08-17T12:37:58.139Z,33.90
2022-08-17T12:40:59.908Z,33.60
2022-08-17T12:44:16.079Z,33.60
2022-08-17T12:47:22.244Z,34.00
2022-08-17T12:50:29.464Z,34.10
2022-08-17T12:53:35.939Z,35.60
2022-08-17T12:56:37.358Z,35.90
2022-08-17T12:59:44.381Z,35.90
2022-08-17T13:03:13.855Z,36.10
2022-08-17T13:06:32.295Z,35.50
2022-08-17T13:09:33.650Z,36.30
2022-08-17T13:12:41.343Z,36.10
2022-08-17T13:15:53.057Z,35.50
2022-08-17T13:19:13.146Z,34.80
2022-08-17T13:22:14.010Z,35.20
2022-08-17T13:25:16.940Z,35.10
2022-08-17T13:28:35.563Z,34.20
2022-08-17T13:31:52.327Z,33.90
2022-08-17T13:35:11.973Z,33.60
2022-08-17T13:38:41.259Z,34.30
2022-08-17T13:41:43.300Z,34.60
2022-08-17T13:44:44.342Z,34.40
2022-08-17T13:47:45.643Z,34.50
2022-08-17T13:51:17.194Z,34.00
2022-08-17T13:54:39.379Z,34.80
2022-08-17T13:57:59.575Z,34.50
2022-08-17T14:01:43.564Z,34.70
2022-08-17T14:04:47.850Z,34.80
2022-08-17T14:07:56.284Z,34.70
2022-08-17T14:10:58.817Z,34.80
2022-08-17T14:14:00.003Z,33.80
2022-08-17T14:17:01.317Z,34.60
2022-08-17T14:20:02.428Z,34.80
2022-08-17T14:23:03.807Z,34.40
2022-08-17T14:26:05.801Z,34.10
2022-08-17T14:29:15.163Z,34.20
2022-08-17T14:32:25.742Z,34.00
2022-08-17T14:35:28.298Z,33.10
2022-08-17T14:38:29.288Z,32.50
2022-08-17T14:41:30.295Z,32.70
2022-08-17T14:44:31.148Z,32.90
2022-08-17T14:47:37.922Z,32.00
2022-08-17T14:50:43.392Z,30.70
2022-08-17T14:53:45.978Z,30.50
2022-08-17T14:56:47.288Z,29.90
2022-08-17T14:59:58.024Z,30.90
2022-08-17T15:03:01.163Z,30.80
2022-08-17T15:06:02.969Z,30.70
2022-08-17T15:09:04.332Z,30.20
2022-08-17T15:12:06.811Z,30.50
2022-08-17T15:15:12.857Z,30.30
2022-08-17T15:18:14.177Z,30.10
2022-08-17T15:21:16.033Z,29.90
2022-08-17T15:24:17.222Z,29.80
2022-08-17T15:27:32.293Z,29.70
2022-08-17T15:30:34.814Z,29.60
2022-08-17T15:33:36.141Z,29.70
2022-08-17T15:36:37.232Z,29.70
2022-08-17T15:39:40.065Z,29.60
2022-08-17T15:42:41.491Z,29.10
2022-08-17T15:45:42.833Z,28.90
2022-08-17T15:48:48.816Z,28.70
2022-08-17T15:51:49.868Z,28.60
2022-08-17T15:54:59.297Z,28.50
2022-08-17T15:58:01.315Z,28.30
2022-08-17T16:01:15.143Z,28.20
2022-08-17T16:04:30.415Z,27.90
2022-08-17T16:07:32.634Z,27.90
2022-08-17T16:10:35.046Z,27.80
2022-08-17T16:13:37.187Z,27.50
2022-08-17T16:16:38.600Z,27.50
2022-08-17T16:19:41.481Z,27.40
2022-08-17T16:22:46.226Z,27.40
2022-08-17T16:25:53.497Z,27.40
2022-08-17T16:28:56.924Z,27.20
2022-08-17T16:31:58.356Z,27.10
2022-08-17T16:35:10.970Z,27.00
2022-08-17T16:38:12.639Z,26.90
2022-08-17T16:41:33.534Z,26.80
2022-08-17T16:44:34.926Z,26.70
2022-08-17T16:47:37.232Z,26.50
2022-08-17T16:50:38.317Z,26.60
2022-08-17T16:53:39.614Z,26.50
2022-08-17T16:56:40.688Z,26.50
2022-08-17T16:59:47.494Z,26.40
2022-08-17T17:02:49.915Z,26.30
2022-08-17T17:06:16.872Z,26.10
2022-08-17T17:09:34.811Z,26.10
2022-08-17T17:13:03.781Z,26.00
2022-08-17T17:16:31.794Z,26.10
2022-08-17T17:19:45.812Z,26.10
2022-08-17T17:23:07.392Z,25.80
2022-08-17T17:26:34.422Z,25.80
2022-08-17T17:29:58.663Z,25.80
2022-08-17T17:33:14.296Z,25.70
2022-08-17T17:36:45.471Z,25.60
2022-08-17T17:39:52.992Z,25.50
2022-08-17T17:43:09.420Z,25.40
2022-08-17T17:46:30.736Z,25.30
2022-08-17T17:49:46.175Z,25.30
2022-08-17T17:53:19.811Z,25.20
2022-08-17T17:57:03.089Z,25.10
2022-08-17T18:00:25.971Z,25.00
2022-08-17T18:03:54.872Z,25.00
2022-08-17T18:07:29.590Z,24.90
2022-08-17T18:10:43.117Z,24.80
2022-08-17T18:14:29.706Z,24.70
2022-08-17T18:17:31.312Z,24.60
2022-08-17T18:20:43.162Z,24.60
2022-08-17T18:24:00.084Z,24.50
2022-08-17T18:27:08.595Z,24.50
2022-08-17T18:30:13.038Z,24.40
2022-08-17T18:33:26.614Z,24.30
2022-08-17T18:36:36.387Z,24.20
2022-08-17T18:39:38.578Z,24.20
2022-08-17T18:42:39.964Z,24.10
2022-08-17T18:45:49.552Z,24.10
2022-08-17T18:48:59.224Z,23.90
2022-08-17T18:52:31.608Z,23.90
2022-08-17T18:55:32.657Z,23.70
2022-08-17T18:58:33.694Z,23.70
2022-08-17T19:02:05.079Z,23.70
2022-08-17T19:05:35.443Z,23.80
2022-08-17T19:08:36.648Z,23.80
2022-08-17T19:11:39.314Z,23.80
2022-08-17T19:14:41.567Z,23.90
2022-08-17T19:18:00.902Z,23.80
2022-08-17T19:21:20.153Z,23.70
2022-08-17T19:24:30.114Z,23.60
2022-08-17T19:27:50.062Z,23.60
2022-08-17T19:31:03.657Z,23.50
2022-08-17T19:34:04.695Z,23.50
2022-08-17T19:37:47.331Z,23.50
2022-08-17T19:41:11.852Z,23.50
2022-08-17T19:44:32.366Z,23.50
2022-08-17T19:48:06.150Z,23.30
2022-08-17T19:51:14.712Z,23.10
2022-08-17T19:54:39.859Z,23.00
2022-08-17T19:57:58.357Z,22.90
2022-08-17T20:01:00.219Z,22.70
2022-08-17T20:04:19.756Z,22.60
2022-08-17T20:07:29.000Z,22.60
2022-08-17T20:10:54.910Z,22.60
2022-08-17T20:14:31.228Z,22.50
2022-08-17T20:17:41.553Z,22.40
2022-08-17T20:21:20.090Z,22.40
2022-08-17T20:24:36.210Z,22.40
2022-08-17T20:27:55.560Z,22.30
2022-08-17T20:31:52.256Z,22.30
2022-08-17T20:35:25.636Z,22.20
2022-08-17T20:38:48.441Z,22.10
2022-08-17T20:42:06.687Z,21.90
2022-08-17T20:45:26.561Z,21.90
2022-08-17T20:48:39.229Z,21.80
2022-08-17T20:52:07.867Z,21.80
2022-08-17T20:55:09.651Z,21.60
2022-08-17T20:58:17.196Z,20.90
2022-08-17T21:01:36.703Z,19.60
2022-08-17T21:04:49.913Z,17.50
2022-08-17T21:08:00.937Z,16.90
2022-08-17T21:11:58.263Z,16.80
2022-08-17T21:15:16.819Z,16.60
2022-08-17T21:18:36.047Z,16.60
2022-08-17T21:22:23.352Z,16.60
2022-08-17T21:26:08.531Z,16.50
2022-08-17T21:29:32.420Z,16.50
2022-08-17T21:32:39.705Z,16.50
2022-08-17T21:36:11.560Z,16.50
2022-08-17T21:39:30.600Z,16.60
2022-08-17T21:42:39.594Z,16.70
2022-08-17T21:45:43.633Z,16.60
2022-08-17T21:48:48.051Z,16.60
2022-08-17T21:51:56.647Z,16.70
2022-08-17T21:55:02.590Z,16.70
2022-08-17T21:58:31.618Z,16.60
2022-08-17T22:01:40.213Z,16.50
2022-08-17T22:04:43.702Z,16.50
2022-08-17T22:07:50.769Z,16.50
2022-08-17T22:11:01.838Z,16.40
2022-08-17T22:14:05.825Z,16.30
2022-08-17T22:17:22.592Z,16.30
2022-08-17T22:20:23.833Z,16.30
2022-08-17T22:23:54.552Z,16.30
2022-08-17T22:27:11.706Z,16.20
2022-08-17T22:30:30.288Z,16.30
2022-08-17T22:33:43.628Z,16.30
2022-08-17T22:36:44.540Z,16.30
2022-08-17T22:39:45.832Z,16.30
2022-08-17T22:42:47.780Z,16.30
2022-08-17T22:45:54.711Z,16.30
2022-08-17T22:48:59.655Z,16.30
2022-08-17T22:52:21.748Z,16.30
2022-08-17T22:55:42.470Z,16.30
2022-08-17T22:59:13.976Z,16.30
2022-08-17T23:02:30.918Z,16.20
2022-08-17T23:05:34.170Z,16.30
2022-08-17T23:08:54.619Z,16.30
2022-08-17T23:11:58.822Z,16.30
2022-08-17T23:15:02.258Z,16.20
2022-08-17T23:18:06.428Z,16.20
2022-08-17T23:21:07.875Z,16.20
2022-08-17T23:24:10.081Z,16.20
2022-08-17T23:27:12.266Z,16.20
2022-08-17T23:30:14.001Z,16.10
2022-08-17T23:33:30.006Z,16.10
2022-08-17T23:36:31.761Z,16.10
2022-08-17T23:39:33.087Z,16.10
2022-08-17T23:42:35.019Z,16.10
2022-08-17T23:45:36.238Z,16.10
2022-08-17T23:48:37.913Z,16.10
2022-08-17T23:51:44.270Z,16.10
2022-08-17T23:54:47.664Z,16.00
2022-08-17T23:57:48.720Z,16.00
